sensor_id;sensor_type;location;lat;lon;timestamp;temperature;humidity
21176;DHT22;10746;50.178;8.186;2022-08-04T00:00:17;22.00;99.90
21176;DHT22;10746;50.178;8.186;2022-08-04T00:02:54;22.00;99.90
21176;DHT22;10746;50.178;8.186;2022-08-04T00:05:29;21.90;99.90
21176;DHT22;10746;50.178;8.186;2022-08-04T00:08:04;22.00;99.90
21176;DHT22;10746;50.178;8.186;2022-08-04T00:10:32;21.90;99.90
21176;DHT22;10746;50.178;8.186;2022-08-04T00:13:03;21.90;99.90
21176;DHT22;10746;50.178;8.186;2022-08-04T00:15:32;21.90;99.90
21176;DHT22;10746;50.178;8.186;2022-08-04T00:18:02;21.80;99.90
21176;DHT22;10746;50.178;8.186;2022-08-04T00:20:31;21.70;99.90
21176;DHT22;10746;50.178;8.186;2022-08-04T00:23:00;21.70;99.90
21176;DHT22;10746;50.178;8.186;2022-08-04T00:25:28;21.70;99.90
21176;DHT22;10746;50.178;8.186;2022-08-04T00:27:55;21.60;99.90
21176;DHT22;10746;50.178;8.186;2022-08-04T00:30:23;21.70;99.90
21176;DHT22;10746;50.178;8.186;2022-08-04T00:32:51;21.60;99.90
21176;DHT22;10746;50.178;8.186;2022-08-04T00:35:19;21.60;99.90
21176;DHT22;10746;50.178;8.186;2022-08-04T00:37:46;21.60;99.90
21176;DHT22;10746;50.178;8.186;2022-08-04T00:40:22;21.50;99.90
21176;DHT22;10746;50.178;8.186;2022-08-04T00:42:58;21.60;99.90
21176;DHT22;10746;50.178;8.186;2022-08-04T00:48:27;21.80;99.90
21176;DHT22;10746;50.178;8.186;2022-08-04T00:51:05;21.80;99.90
21176;DHT22;10746;50.178;8.186;2022-08-04T00:53:54;21.80;99.90
21176;DHT22;10746;50.178;8.186;2022-08-04T00:56:40;21.70;99.90
21176;DHT22;10746;50.178;8.186;2022-08-04T00:59:17;21.60;99.90
21176;DHT22;10746;50.178;8.186;2022-08-04T01:01:58;21.70;99.90
21176;DHT22;10746;50.178;8.186;2022-08-04T01:04:43;21.70;99.90
21176;DHT22;10746;50.178;8.186;2022-08-04T01:07:30;21.60;99.90
21176;DHT22;10746;50.178;8.186;2022-08-04T01:10:04;21.60;99.90
21176;DHT22;10746;50.178;8.186;2022-08-04T01:12:48;21.60;99.90
21176;DHT22;10746;50.178;8.186;2022-08-04T01:15:31;21.60;99.90
21176;DHT22;10746;50.178;8.186;2022-08-04T01:18:05;21.50;99.90
21176;DHT22;10746;50.178;8.186;2022-08-04T01:20:34;21.40;99.90
21176;DHT22;10746;50.178;8.186;2022-08-04T01:26:37;21.40;99.90
21176;DHT22;10746;50.178;8.186;2022-08-04T01:29:08;21.40;99.90
21176;DHT22;10746;50.178;8.186;2022-08-04T01:31:52;21.40;99.90
21176;DHT22;10746;50.178;8.186;2022-08-04T01:34:21;21.50;99.90
21176;DHT22;10746;50.178;8.186;2022-08-04T01:36:57;21.40;99.90
21176;DHT22;10746;50.178;8.186;2022-08-04T01:39:33;21.40;99.90
21176;DHT22;10746;50.178;8.186;2022-08-04T01:42:06;21.30;99.90
21176;DHT22;10746;50.178;8.186;2022-08-04T01:44:37;21.30;99.90
21176;DHT22;10746;50.178;8.186;2022-08-04T01:47:06;21.40;99.90
21176;DHT22;10746;50.178;8.186;2022-08-04T01:49:33;21.40;99.90
21176;DHT22;10746;50.178;8.186;2022-08-04T01:52:01;21.40;99.90
21176;DHT22;10746;50.178;8.186;2022-08-04T01:54:29;21.50;99.90
21176;DHT22;10746;50.178;8.186;2022-08-04T01:56:57;21.40;99.90
21176;DHT22;10746;50.178;8.186;2022-08-04T01:59:27;21.30;99.90
21176;DHT22;10746;50.178;8.186;2022-08-04T02:01:57;21.30;99.90
21176;DHT22;10746;50.178;8.186;2022-08-04T02:04:24;21.30;99.90
21176;DHT22;10746;50.178;8.186;2022-08-04T02:07:02;21.10;99.90
21176;DHT22;10746;50.178;8.186;2022-08-04T02:09:37;21.20;99.90
21176;DHT22;10746;50.178;8.186;2022-08-04T02:12:10;21.20;99.90
21176;DHT22;10746;50.178;8.186;2022-08-04T02:14:44;21.20;99.90
21176;DHT22;10746;50.178;8.186;2022-08-04T02:17:23;21.10;99.90
21176;DHT22;10746;50.178;8.186;2022-08-04T02:20:00;21.10;99.90
21176;DHT22;10746;50.178;8.186;2022-08-04T02:22:30;21.00;99.90
21176;DHT22;10746;50.178;8.186;2022-08-04T02:25:04;20.90;99.90
21176;DHT22;10746;50.178;8.186;2022-08-04T02:27:48;21.00;99.90
21176;DHT22;10746;50.178;8.186;2022-08-04T02:30:18;21.00;99.90
21176;DHT22;10746;50.178;8.186;2022-08-04T02:32:48;21.00;99.90
21176;DHT22;10746;50.178;8.186;2022-08-04T02:35:21;21.00;99.90
21176;DHT22;10746;50.178;8.186;2022-08-04T02:37:59;21.00;99.90
21176;DHT22;10746;50.178;8.186;2022-08-04T02:40:29;20.90;99.90
21176;DHT22;10746;50.178;8.186;2022-08-04T02:42:57;20.90;99.90
21176;DHT22;10746;50.178;8.186;2022-08-04T02:45:26;20.90;99.90
21176;DHT22;10746;50.178;8.186;2022-08-04T02:47:56;20.90;99.90
21176;DHT22;10746;50.178;8.186;2022-08-04T02:50:27;21.00;99.90
21176;DHT22;10746;50.178;8.186;2022-08-04T02:52:56;20.90;99.90
21176;DHT22;10746;50.178;8.186;2022-08-04T02:55:24;20.70;99.90
21176;DHT22;10746;50.178;8.186;2022-08-04T02:57:53;20.70;99.90
21176;DHT22;10746;50.178;8.186;2022-08-04T03:00:21;20.70;99.90
21176;DHT22;10746;50.178;8.186;2022-08-04T03:03:15;20.60;99.90
21176;DHT22;10746;50.178;8.186;2022-08-04T03:05:57;20.60;99.90
21176;DHT22;10746;50.178;8.186;2022-08-04T03:08:50;20.60;99.90
21176;DHT22;10746;50.178;8.186;2022-08-04T03:11:50;20.60;99.90
21176;DHT22;10746;50.178;8.186;2022-08-04T03:14:52;20.70;99.90
21176;DHT22;10746;50.178;8.186;2022-08-04T03:17:40;20.80;99.90
21176;DHT22;10746;50.178;8.186;2022-08-04T03:20:34;20.80;99.90
21176;DHT22;10746;50.178;8.186;2022-08-04T03:23:28;20.60;99.90
21176;DHT22;10746;50.178;8.186;2022-08-04T03:26:33;20.60;99.90
21176;DHT22;10746;50.178;8.186;2022-08-04T03:29:32;20.60;99.90
21176;DHT22;10746;50.178;8.186;2022-08-04T03:32:19;20.50;99.90
21176;DHT22;10746;50.178;8.186;2022-08-04T03:35:02;20.50;99.90
21176;DHT22;10746;50.178;8.186;2022-08-04T03:37:56;20.50;99.90
21176;DHT22;10746;50.178;8.186;2022-08-04T03:40:57;20.50;99.90
21176;DHT22;10746;50.178;8.186;2022-08-04T03:43:47;20.60;99.90
21176;DHT22;10746;50.178;8.186;2022-08-04T03:49:45;20.70;99.90
21176;DHT22;10746;50.178;8.186;2022-08-04T03:52:35;20.70;99.90
21176;DHT22;10746;50.178;8.186;2022-08-04T03:55:35;20.60;99.90
21176;DHT22;10746;50.178;8.186;2022-08-04T03:58:21;20.60;99.90
21176;DHT22;10746;50.178;8.186;2022-08-04T04:00:56;20.50;99.90
21176;DHT22;10746;50.178;8.186;2022-08-04T04:03:56;20.50;99.90
21176;DHT22;10746;50.178;8.186;2022-08-04T04:06:59;20.50;99.90
21176;DHT22;10746;50.178;8.186;2022-08-04T04:10:07;20.50;99.90
21176;DHT22;10746;50.178;8.186;2022-08-04T04:12:58;20.50;99.90
21176;DHT22;10746;50.178;8.186;2022-08-04T04:15:38;20.50;99.90
21176;DHT22;10746;50.178;8.186;2022-08-04T04:18:18;20.40;99.90
21176;DHT22;10746;50.178;8.186;2022-08-04T04:20:56;20.50;99.90
21176;DHT22;10746;50.178;8.186;2022-08-04T04:23:30;20.40;99.90
21176;DHT22;10746;50.178;8.186;2022-08-04T04:26:05;20.50;99.90
21176;DHT22;10746;50.178;8.186;2022-08-04T04:28:57;20.40;99.90
21176;DHT22;10746;50.178;8.186;2022-08-04T04:31:35;20.50;99.90
21176;DHT22;10746;50.178;8.186;2022-08-04T04:34:12;20.50;99.90
21176;DHT22;10746;50.178;8.186;2022-08-04T04:36:49;20.40;99.90
21176;DHT22;10746;50.178;8.186;2022-08-04T04:39:30;20.30;99.90
21176;DHT22;10746;50.178;8.186;2022-08-04T04:42:06;20.30;99.90
21176;DHT22;10746;50.178;8.186;2022-08-04T04:44:55;20.30;99.90
21176;DHT22;10746;50.178;8.186;2022-08-04T04:47:32;20.40;99.90
21176;DHT22;10746;50.178;8.186;2022-08-04T04:50:08;20.50;99.90
21176;DHT22;10746;50.178;8.186;2022-08-04T04:52:40;20.60;99.90
21176;DHT22;10746;50.178;8.186;2022-08-04T04:55:12;20.90;99.90
21176;DHT22;10746;50.178;8.186;2022-08-04T04:57:42;21.10;99.90
21176;DHT22;10746;50.178;8.186;2022-08-04T05:00:12;21.30;99.90
21176;DHT22;10746;50.178;8.186;2022-08-04T05:03:04;21.40;99.90
21176;DHT22;10746;50.178;8.186;2022-08-04T05:06:13;21.50;99.90
21176;DHT22;10746;50.178;8.186;2022-08-04T05:08:58;21.70;99.90
21176;DHT22;10746;50.178;8.186;2022-08-04T05:11:50;21.90;99.90
21176;DHT22;10746;50.178;8.186;2022-08-04T05:14:24;22.00;99.90
21176;DHT22;10746;50.178;8.186;2022-08-04T05:17:01;22.10;99.90
21176;DHT22;10746;50.178;8.186;2022-08-04T05:19:37;22.30;99.90
21176;DHT22;10746;50.178;8.186;2022-08-04T05:22:09;22.60;99.90
21176;DHT22;10746;50.178;8.186;2022-08-04T05:24:41;22.80;99.90
21176;DHT22;10746;50.178;8.186;2022-08-04T05:27:13;23.00;99.90
21176;DHT22;10746;50.178;8.186;2022-08-04T05:29:46;23.20;99.90
21176;DHT22;10746;50.178;8.186;2022-08-04T05:32:20;23.50;99.90
21176;DHT22;10746;50.178;8.186;2022-08-04T05:34:53;23.90;99.90
21176;DHT22;10746;50.178;8.186;2022-08-04T05:37:21;24.20;99.90
21176;DHT22;10746;50.178;8.186;2022-08-04T05:39:57;24.50;99.90
21176;DHT22;10746;50.178;8.186;2022-08-04T05:42:27;24.40;99.90
21176;DHT22;10746;50.178;8.186;2022-08-04T05:44:54;24.50;99.90
21176;DHT22;10746;50.178;8.186;2022-08-04T05:47:23;24.60;99.90
21176;DHT22;10746;50.178;8.186;2022-08-04T05:49:50;24.60;99.90
21176;DHT22;10746;50.178;8.186;2022-08-04T05:52:17;25.00;99.90
21176;DHT22;10746;50.178;8.186;2022-08-04T05:54:45;25.00;99.90
21176;DHT22;10746;50.178;8.186;2022-08-04T05:57:14;25.20;99.90
21176;DHT22;10746;50.178;8.186;2022-08-04T05:59:41;25.50;99.90
21176;DHT22;10746;50.178;8.186;2022-08-04T06:02:12;25.70;99.90
21176;DHT22;10746;50.178;8.186;2022-08-04T06:04:44;25.70;99.90
21176;DHT22;10746;50.178;8.186;2022-08-04T06:07:12;25.70;99.90
21176;DHT22;10746;50.178;8.186;2022-08-04T06:09:39;25.80;99.90
21176;DHT22;10746;50.178;8.186;2022-08-04T06:12:08;25.90;99.90
21176;DHT22;10746;50.178;8.186;2022-08-04T06:14:39;26.10;99.90
21176;DHT22;10746;50.178;8.186;2022-08-04T06:17:08;26.50;99.90
21176;DHT22;10746;50.178;8.186;2022-08-04T06:19:40;26.70;99.90
21176;DHT22;10746;50.178;8.186;2022-08-04T06:22:11;26.50;99.90
21176;DHT22;10746;50.178;8.186;2022-08-04T06:24:38;26.60;99.90
21176;DHT22;10746;50.178;8.186;2022-08-04T06:27:07;26.60;99.90
21176;DHT22;10746;50.178;8.186;2022-08-04T06:29:35;26.90;99.90
21176;DHT22;10746;50.178;8.186;2022-08-04T06:32:06;27.30;99.90
21176;DHT22;10746;50.178;8.186;2022-08-04T06:34:51;27.20;99.90
21176;DHT22;10746;50.178;8.186;2022-08-04T06:37:19;27.60;99.90
21176;DHT22;10746;50.178;8.186;2022-08-04T06:39:47;27.80;99.90
21176;DHT22;10746;50.178;8.186;2022-08-04T06:42:16;28.00;99.90
21176;DHT22;10746;50.178;8.186;2022-08-04T06:44:43;28.50;99.90
21176;DHT22;10746;50.178;8.186;2022-08-04T06:47:12;28.30;99.90
21176;DHT22;10746;50.178;8.186;2022-08-04T06:49:39;28.40;99.90
21176;DHT22;10746;50.178;8.186;2022-08-04T06:52:08;28.50;99.90
21176;DHT22;10746;50.178;8.186;2022-08-04T06:54:35;28.50;99.90
21176;DHT22;10746;50.178;8.186;2022-08-04T06:57:02;28.50;99.90
21176;DHT22;10746;50.178;8.186;2022-08-04T06:59:29;28.60;99.90
21176;DHT22;10746;50.178;8.186;2022-08-04T07:01:58;28.70;99.90
21176;DHT22;10746;50.178;8.186;2022-08-04T07:04:25;28.90;99.90
21176;DHT22;10746;50.178;8.186;2022-08-04T07:06:51;29.10;99.90
21176;DHT22;10746;50.178;8.186;2022-08-04T07:09:20;29.40;99.90
21176;DHT22;10746;50.178;8.186;2022-08-04T07:11:48;28.90;99.90
21176;DHT22;10746;50.178;8.186;2022-08-04T07:14:16;28.70;99.90
21176;DHT22;10746;50.178;8.186;2022-08-04T07:16:43;28.70;99.90
21176;DHT22;10746;50.178;8.186;2022-08-04T07:19:10;28.50;99.90
21176;DHT22;10746;50.178;8.186;2022-08-04T07:21:38;28.30;99.90
21176;DHT22;10746;50.178;8.186;2022-08-04T07:24:05;28.10;99.90
21176;DHT22;10746;50.178;8.186;2022-08-04T07:26:34;28.20;99.90
21176;DHT22;10746;50.178;8.186;2022-08-04T07:29:01;28.80;99.90
21176;DHT22;10746;50.178;8.186;2022-08-04T07:31:28;29.10;99.90
21176;DHT22;10746;50.178;8.186;2022-08-04T07:33:55;29.30;99.90
21176;DHT22;10746;50.178;8.186;2022-08-04T07:36:23;29.70;99.90
21176;DHT22;10746;50.178;8.186;2022-08-04T07:38:49;29.60;99.90
21176;DHT22;10746;50.178;8.186;2022-08-04T07:41:19;29.60;99.90
21176;DHT22;10746;50.178;8.186;2022-08-04T07:43:48;29.70;99.90
21176;DHT22;10746;50.178;8.186;2022-08-04T07:46:15;29.50;99.90
21176;DHT22;10746;50.178;8.186;2022-08-04T07:48:42;29.70;99.90
21176;DHT22;10746;50.178;8.186;2022-08-04T07:51:10;29.70;99.90
21176;DHT22;10746;50.178;8.186;2022-08-04T07:53:36;29.80;99.90
21176;DHT22;10746;50.178;8.186;2022-08-04T07:56:04;29.80;99.90
21176;DHT22;10746;50.178;8.186;2022-08-04T07:58:30;29.90;99.90
21176;DHT22;10746;50.178;8.186;2022-08-04T08:00:59;30.00;99.90
21176;DHT22;10746;50.178;8.186;2022-08-04T08:03:26;30.20;99.90
21176;DHT22;10746;50.178;8.186;2022-08-04T08:05:53;30.20;99.90
21176;DHT22;10746;50.178;8.186;2022-08-04T08:08:20;30.50;99.90
21176;DHT22;10746;50.178;8.186;2022-08-04T08:10:47;30.70;99.90
21176;DHT22;10746;50.178;8.186;2022-08-04T08:13:14;30.90;99.90
21176;DHT22;10746;50.178;8.186;2022-08-04T08:15:44;31.20;99.90
21176;DHT22;10746;50.178;8.186;2022-08-04T08:18:12;31.00;99.90
21176;DHT22;10746;50.178;8.186;2022-08-04T08:20:43;31.10;99.90
21176;DHT22;10746;50.178;8.186;2022-08-04T08:23:10;31.30;99.90
21176;DHT22;10746;50.178;8.186;2022-08-04T08:25:36;31.30;99.90
21176;DHT22;10746;50.178;8.186;2022-08-04T08:28:04;30.80;99.90
21176;DHT22;10746;50.178;8.186;2022-08-04T08:30:32;30.90;99.90
21176;DHT22;10746;50.178;8.186;2022-08-04T08:33:05;31.20;99.90
21176;DHT22;10746;50.178;8.186;2022-08-04T08:35:41;31.00;99.90
21176;DHT22;10746;50.178;8.186;2022-08-04T08:38:13;31.20;99.90
21176;DHT22;10746;50.178;8.186;2022-08-04T08:40:47;31.00;99.90
21176;DHT22;10746;50.178;8.186;2022-08-04T08:43:27;31.10;99.90
21176;DHT22;10746;50.178;8.186;2022-08-04T08:46:24;31.30;99.90
21176;DHT22;10746;50.178;8.186;2022-08-04T08:49:04;31.40;99.90
21176;DHT22;10746;50.178;8.186;2022-08-04T08:51:53;31.50;99.90
21176;DHT22;10746;50.178;8.186;2022-08-04T08:54:43;31.50;99.90
21176;DHT22;10746;50.178;8.186;2022-08-04T08:57:21;31.40;99.90
21176;DHT22;10746;50.178;8.186;2022-08-04T09:00:00;31.40;99.90
21176;DHT22;10746;50.178;8.186;2022-08-04T09:06:08;31.60;99.90
21176;DHT22;10746;50.178;8.186;2022-08-04T09:08:59;31.70;99.90
21176;DHT22;10746;50.178;8.186;2022-08-04T09:11:38;31.70;99.90
21176;DHT22;10746;50.178;8.186;2022-08-04T09:14:13;31.90;99.90
21176;DHT22;10746;50.178;8.186;2022-08-04T09:16:48;32.20;99.90
21176;DHT22;10746;50.178;8.186;2022-08-04T09:19:22;31.90;99.90
21176;DHT22;10746;50.178;8.186;2022-08-04T09:21:54;32.00;99.90
21176;DHT22;10746;50.178;8.186;2022-08-04T09:24:31;31.90;99.90
21176;DHT22;10746;50.178;8.186;2022-08-04T09:27:08;32.10;99.90
21176;DHT22;10746;50.178;8.186;2022-08-04T09:29:42;32.00;99.90
21176;DHT22;10746;50.178;8.186;2022-08-04T09:32:21;32.00;99.90
21176;DHT22;10746;50.178;8.186;2022-08-04T09:34:56;31.90;99.90
21176;DHT22;10746;50.178;8.186;2022-08-04T09:37:35;32.00;99.90
21176;DHT22;10746;50.178;8.186;2022-08-04T09:40:10;32.10;99.90
21176;DHT22;10746;50.178;8.186;2022-08-04T09:42:44;31.80;99.90
21176;DHT22;10746;50.178;8.186;2022-08-04T09:45:21;31.50;99.90
21176;DHT22;10746;50.178;8.186;2022-08-04T09:47:53;31.70;99.90
21176;DHT22;10746;50.178;8.186;2022-08-04T09:50:31;31.90;99.90
21176;DHT22;10746;50.178;8.186;2022-08-04T09:53:09;31.40;99.90
21176;DHT22;10746;50.178;8.186;2022-08-04T09:55:49;31.60;99.90
21176;DHT22;10746;50.178;8.186;2022-08-04T09:58:26;31.90;99.90
21176;DHT22;10746;50.178;8.186;2022-08-04T10:01:00;31.80;99.90
21176;DHT22;10746;50.178;8.186;2022-08-04T10:03:31;31.60;99.90
21176;DHT22;10746;50.178;8.186;2022-08-04T10:06:07;31.90;99.90
21176;DHT22;10746;50.178;8.186;2022-08-04T10:08:50;32.40;99.90
21176;DHT22;10746;50.178;8.186;2022-08-04T10:11:32;32.70;99.90
21176;DHT22;10746;50.178;8.186;2022-08-04T10:14:08;32.70;99.90
21176;DHT22;10746;50.178;8.186;2022-08-04T10:16:43;32.90;99.90
21176;DHT22;10746;50.178;8.186;2022-08-04T10:19:19;33.00;99.90
21176;DHT22;10746;50.178;8.186;2022-08-04T10:22:05;33.00;99.90
21176;DHT22;10746;50.178;8.186;2022-08-04T10:24:41;33.00;99.90
21176;DHT22;10746;50.178;8.186;2022-08-04T10:27:15;33.10;99.90
21176;DHT22;10746;50.178;8.186;2022-08-04T10:29:46;33.20;99.90
21176;DHT22;10746;50.178;8.186;2022-08-04T10:32:18;33.20;99.90
21176;DHT22;10746;50.178;8.186;2022-08-04T10:34:56;32.80;99.90
21176;DHT22;10746;50.178;8.186;2022-08-04T10:37:28;32.80;99.90
21176;DHT22;10746;50.178;8.186;2022-08-04T10:40:02;32.70;99.90
21176;DHT22;10746;50.178;8.186;2022-08-04T10:43:10;32.60;99.90
21176;DHT22;10746;50.178;8.186;2022-08-04T10:45:41;32.60;99.90
21176;DHT22;10746;50.178;8.186;2022-08-04T10:48:14;33.20;99.60
21176;DHT22;10746;50.178;8.186;2022-08-04T10:50:55;33.50;99.90
21176;DHT22;10746;50.178;8.186;2022-08-04T10:53:25;34.00;99.20
21176;DHT22;10746;50.178;8.186;2022-08-04T10:55:58;34.00;98.40
21176;DHT22;10746;50.178;8.186;2022-08-04T10:58:34;33.90;98.90
21176;DHT22;10746;50.178;8.186;2022-08-04T11:01:08;33.80;99.60
21176;DHT22;10746;50.178;8.186;2022-08-04T11:03:41;33.50;99.30
21176;DHT22;10746;50.178;8.186;2022-08-04T11:06:10;33.70;98.50
21176;DHT22;10746;50.178;8.186;2022-08-04T11:08:43;33.90;97.90
21176;DHT22;10746;50.178;8.186;2022-08-04T11:11:14;34.00;97.70
21176;DHT22;10746;50.178;8.186;2022-08-04T11:13:46;34.10;97.20
21176;DHT22;10746;50.178;8.186;2022-08-04T11:16:20;34.10;95.80
21176;DHT22;10746;50.178;8.186;2022-08-04T11:18:55;34.10;94.60
21176;DHT22;10746;50.178;8.186;2022-08-04T11:21:32;34.30;95.90
21176;DHT22;10746;50.178;8.186;2022-08-04T11:24:02;34.50;94.50
21176;DHT22;10746;50.178;8.186;2022-08-04T11:26:37;34.50;94.30
21176;DHT22;10746;50.178;8.186;2022-08-04T11:29:16;34.70;95.20
21176;DHT22;10746;50.178;8.186;2022-08-04T11:31:48;34.50;93.70
21176;DHT22;10746;50.178;8.186;2022-08-04T11:34:18;34.60;94.60
21176;DHT22;10746;50.178;8.186;2022-08-04T11:36:51;34.80;95.50
21176;DHT22;10746;50.178;8.186;2022-08-04T11:39:27;35.10;94.70
21176;DHT22;10746;50.178;8.186;2022-08-04T11:41:59;35.20;94.90
21176;DHT22;10746;50.178;8.186;2022-08-04T11:44:31;35.20;94.00
21176;DHT22;10746;50.178;8.186;2022-08-04T11:47:03;35.00;94.00
21176;DHT22;10746;50.178;8.186;2022-08-04T11:49:36;35.20;92.50
21176;DHT22;10746;50.178;8.186;2022-08-04T11:52:06;35.50;93.60
21176;DHT22;10746;50.178;8.186;2022-08-04T11:54:34;35.60;93.40
21176;DHT22;10746;50.178;8.186;2022-08-04T11:57:03;35.40;93.60
21176;DHT22;10746;50.178;8.186;2022-08-04T11:59:34;35.50;92.70
21176;DHT22;10746;50.178;8.186;2022-08-04T12:02:24;35.10;91.80
21176;DHT22;10746;50.178;8.186;2022-08-04T12:04:56;34.20;93.30
21176;DHT22;10746;50.178;8.186;2022-08-04T12:07:37;33.90;92.10
21176;DHT22;10746;50.178;8.186;2022-08-04T12:10:14;33.70;91.70
21176;DHT22;10746;50.178;8.186;2022-08-04T12:12:47;33.60;92.50
21176;DHT22;10746;50.178;8.186;2022-08-04T12:15:23;33.60;92.40
21176;DHT22;10746;50.178;8.186;2022-08-04T12:17:59;34.00;91.90
21176;DHT22;10746;50.178;8.186;2022-08-04T12:20:33;34.30;92.80
21176;DHT22;10746;50.178;8.186;2022-08-04T12:23:10;34.00;92.00
21176;DHT22;10746;50.178;8.186;2022-08-04T12:25:40;33.60;91.90
21176;DHT22;10746;50.178;8.186;2022-08-04T12:28:15;33.40;91.30
21176;DHT22;10746;50.178;8.186;2022-08-04T12:30:48;33.40;90.90
21176;DHT22;10746;50.178;8.186;2022-08-04T12:33:20;33.40;91.10
21176;DHT22;10746;50.178;8.186;2022-08-04T12:35:54;33.20;91.60
21176;DHT22;10746;50.178;8.186;2022-08-04T12:38:26;33.20;91.40
21176;DHT22;10746;50.178;8.186;2022-08-04T12:40:57;33.30;91.20
21176;DHT22;10746;50.178;8.186;2022-08-04T12:43:30;33.30;92.10
21176;DHT22;10746;50.178;8.186;2022-08-04T12:46:03;33.50;92.80
21176;DHT22;10746;50.178;8.186;2022-08-04T12:48:31;33.70;93.50
21176;DHT22;10746;50.178;8.186;2022-08-04T12:50:58;33.80;94.30
21176;DHT22;10746;50.178;8.186;2022-08-04T12:53:28;34.70;92.90
21176;DHT22;10746;50.178;8.186;2022-08-04T12:55:57;35.40;92.20
21176;DHT22;10746;50.178;8.186;2022-08-04T12:58:27;36.40;91.50
21176;DHT22;10746;50.178;8.186;2022-08-04T13:00:59;36.70;90.00
21176;DHT22;10746;50.178;8.186;2022-08-04T13:03:35;36.90;88.40
21176;DHT22;10746;50.178;8.186;2022-08-04T13:06:03;35.90;87.80
21176;DHT22;10746;50.178;8.186;2022-08-04T13:08:32;35.10;90.30
21176;DHT22;10746;50.178;8.186;2022-08-04T13:11:02;36.10;90.60
21176;DHT22;10746;50.178;8.186;2022-08-04T13:13:33;36.10;88.20
21176;DHT22;10746;50.178;8.186;2022-08-04T13:16:02;36.30;87.50
21176;DHT22;10746;50.178;8.186;2022-08-04T13:18:33;36.30;85.90
21176;DHT22;10746;50.178;8.186;2022-08-04T13:21:10;36.10;86.20
21176;DHT22;10746;50.178;8.186;2022-08-04T13:23:38;36.10;86.80
21176;DHT22;10746;50.178;8.186;2022-08-04T13:26:07;36.80;82.90
21176;DHT22;10746;50.178;8.186;2022-08-04T13:28:37;36.80;83.40
21176;DHT22;10746;50.178;8.186;2022-08-04T13:31:06;36.30;86.50
21176;DHT22;10746;50.178;8.186;2022-08-04T13:33:37;36.10;82.40
21176;DHT22;10746;50.178;8.186;2022-08-04T13:36:06;36.00;83.60
21176;DHT22;10746;50.178;8.186;2022-08-04T13:38:35;36.10;85.70
21176;DHT22;10746;50.178;8.186;2022-08-04T13:41:04;36.10;82.30
21176;DHT22;10746;50.178;8.186;2022-08-04T13:43:33;36.90;81.80
21176;DHT22;10746;50.178;8.186;2022-08-04T13:46:05;37.80;83.50
21176;DHT22;10746;50.178;8.186;2022-08-04T13:48:35;38.40;84.80
21176;DHT22;10746;50.178;8.186;2022-08-04T13:51:04;38.70;82.80
21176;DHT22;10746;50.178;8.186;2022-08-04T13:53:31;39.10;82.90
21176;DHT22;10746;50.178;8.186;2022-08-04T13:55:59;38.90;81.30
21176;DHT22;10746;50.178;8.186;2022-08-04T13:58:29;38.60;80.10
21176;DHT22;10746;50.178;8.186;2022-08-04T14:00:59;38.60;80.90
21176;DHT22;10746;50.178;8.186;2022-08-04T14:03:30;38.10;80.40
21176;DHT22;10746;50.178;8.186;2022-08-04T14:06:14;37.10;81.20
21176;DHT22;10746;50.178;8.186;2022-08-04T14:08:48;36.50;82.70
21176;DHT22;10746;50.178;8.186;2022-08-04T14:11:17;36.40;83.30
21176;DHT22;10746;50.178;8.186;2022-08-04T14:13:44;37.00;80.50
21176;DHT22;10746;50.178;8.186;2022-08-04T14:16:16;36.70;83.90
21176;DHT22;10746;50.178;8.186;2022-08-04T14:18:43;35.00;86.50
21176;DHT22;10746;50.178;8.186;2022-08-04T14:21:13;34.70;85.20
21176;DHT22;10746;50.178;8.186;2022-08-04T14:23:43;35.30;86.70
21176;DHT22;10746;50.178;8.186;2022-08-04T14:26:18;35.50;84.90
21176;DHT22;10746;50.178;8.186;2022-08-04T14:28:45;35.30;83.80
21176;DHT22;10746;50.178;8.186;2022-08-04T14:31:14;34.90;86.70
21176;DHT22;10746;50.178;8.186;2022-08-04T14:33:43;34.60;87.90
21176;DHT22;10746;50.178;8.186;2022-08-04T14:36:10;34.50;85.10
21176;DHT22;10746;50.178;8.186;2022-08-04T14:38:45;34.20;84.20
21176;DHT22;10746;50.178;8.186;2022-08-04T14:41:12;34.00;83.50
21176;DHT22;10746;50.178;8.186;2022-08-04T14:43:42;33.90;86.20
21176;DHT22;10746;50.178;8.186;2022-08-04T14:46:09;33.80;88.40
21176;DHT22;10746;50.178;8.186;2022-08-04T14:48:37;33.60;85.40
21176;DHT22;10746;50.178;8.186;2022-08-04T14:51:04;33.40;87.30
21176;DHT22;10746;50.178;8.186;2022-08-04T14:53:37;33.20;86.90
21176;DHT22;10746;50.178;8.186;2022-08-04T14:56:06;33.00;90.60
21176;DHT22;10746;50.178;8.186;2022-08-04T14:58:33;33.10;87.40
21176;DHT22;10746;50.178;8.186;2022-08-04T15:01:02;33.10;87.70
21176;DHT22;10746;50.178;8.186;2022-08-04T15:03:30;33.20;85.40
21176;DHT22;10746;50.178;8.186;2022-08-04T15:05:59;33.30;86.40
21176;DHT22;10746;50.178;8.186;2022-08-04T15:08:26;33.30;90.00
21176;DHT22;10746;50.178;8.186;2022-08-04T15:10:54;33.20;88.90
21176;DHT22;10746;50.178;8.186;2022-08-04T15:13:24;33.20;85.70
21176;DHT22;10746;50.178;8.186;2022-08-04T15:15:51;33.20;87.40
21176;DHT22;10746;50.178;8.186;2022-08-04T15:18:18;33.30;87.30
21176;DHT22;10746;50.178;8.186;2022-08-04T15:20:45;33.30;90.00
21176;DHT22;10746;50.178;8.186;2022-08-04T15:23:12;32.90;90.10
21176;DHT22;10746;50.178;8.186;2022-08-04T15:25:42;32.80;88.70
21176;DHT22;10746;50.178;8.186;2022-08-04T15:28:15;32.80;93.50
21176;DHT22;10746;50.178;8.186;2022-08-04T15:30:45;32.80;92.20
21176;DHT22;10746;50.178;8.186;2022-08-04T15:33:14;32.50;93.00
21176;DHT22;10746;50.178;8.186;2022-08-04T15:35:45;32.30;92.50
21176;DHT22;10746;50.178;8.186;2022-08-04T15:38:20;32.30;91.00
21176;DHT22;10746;50.178;8.186;2022-08-04T15:40:53;32.10;91.90
21176;DHT22;10746;50.178;8.186;2022-08-04T15:43:37;32.20;90.60
21176;DHT22;10746;50.178;8.186;2022-08-04T15:46:11;32.40;90.30
21176;DHT22;10746;50.178;8.186;2022-08-04T15:48:38;32.60;90.10
21176;DHT22;10746;50.178;8.186;2022-08-04T15:51:10;32.70;90.80
21176;DHT22;10746;50.178;8.186;2022-08-04T15:56:46;32.70;92.20
21176;DHT22;10746;50.178;8.186;2022-08-04T15:59:13;32.80;91.80
21176;DHT22;10746;50.178;8.186;2022-08-04T16:01:42;33.80;91.20
21176;DHT22;10746;50.178;8.186;2022-08-04T16:04:23;34.10;89.00
21176;DHT22;10746;50.178;8.186;2022-08-04T16:06:50;34.60;88.20
21176;DHT22;10746;50.178;8.186;2022-08-04T16:09:22;35.80;84.70
21176;DHT22;10746;50.178;8.186;2022-08-04T16:11:49;36.80;81.10
21176;DHT22;10746;50.178;8.186;2022-08-04T16:14:16;36.90;80.00
21176;DHT22;10746;50.178;8.186;2022-08-04T16:16:48;36.50;82.40
21176;DHT22;10746;50.178;8.186;2022-08-04T16:19:25;36.40;82.60
21176;DHT22;10746;50.178;8.186;2022-08-04T16:21:55;36.70;81.70
21176;DHT22;10746;50.178;8.186;2022-08-04T16:24:28;36.80;80.40
21176;DHT22;10746;50.178;8.186;2022-08-04T16:26:56;36.60;81.70